sensor_id;sensor_type;location;lat;lon;timestamp;P1;durP1;ratioP1;P2;durP2;ratioP2
13079;SDS011;6606;49.154;9.280;2022-08-03T00:02:10;2.63;;;2.10;;
13079;SDS011;6606;49.154;9.280;2022-08-03T00:04:37;4.45;;;2.40;;
13079;SDS011;6606;49.154;9.280;2022-08-03T00:07:04;5.85;;;2.20;;
13079;SDS011;6606;49.154;9.280;2022-08-03T00:09:31;2.78;;;2.28;;
13079;SDS011;6606;49.154;9.280;2022-08-03T00:11:59;2.30;;;2.10;;
13079;SDS011;6606;49.154;9.280;2022-08-03T00:14:25;2.75;;;2.42;;
13079;SDS011;6606;49.154;9.280;2022-08-03T00:16:52;5.93;;;2.35;;
13079;SDS011;6606;49.154;9.280;2022-08-03T00:19:19;4.82;;;2.38;;
13079;SDS011;6606;49.154;9.280;2022-08-03T00:21:45;2.60;;;2.40;;
13079;SDS011;6606;49.154;9.280;2022-08-03T00:24:12;3.75;;;2.55;;
13079;SDS011;6606;49.154;9.280;2022-08-03T00:26:39;2.72;;;2.20;;
13079;SDS011;6606;49.154;9.280;2022-08-03T00:29:07;4.43;;;2.80;;
13079;SDS011;6606;49.154;9.280;2022-08-03T00:31:34;2.33;;;2.13;;
13079;SDS011;6606;49.154;9.280;2022-08-03T00:34:00;4.70;;;2.25;;
13079;SDS011;6606;49.154;9.280;2022-08-03T00:36:27;3.55;;;2.10;;
13079;SDS011;6606;49.154;9.280;2022-08-03T00:38:54;3.13;;;2.17;;
13079;SDS011;6606;49.154;9.280;2022-08-03T00:41:21;2.75;;;2.38;;
13079;SDS011;6606;49.154;9.280;2022-08-03T00:43:48;3.30;;;2.10;;
13079;SDS011;6606;49.154;9.280;2022-08-03T00:46:16;2.85;;;2.13;;
13079;SDS011;6606;49.154;9.280;2022-08-03T00:48:43;3.95;;;2.50;;
13079;SDS011;6606;49.154;9.280;2022-08-03T00:51:09;3.45;;;2.70;;
13079;SDS011;6606;49.154;9.280;2022-08-03T00:53:36;3.35;;;2.25;;
13079;SDS011;6606;49.154;9.280;2022-08-03T00:56:03;6.28;;;2.40;;
13079;SDS011;6606;49.154;9.280;2022-08-03T00:58:30;2.40;;;2.20;;
13079;SDS011;6606;49.154;9.280;2022-08-03T01:00:57;3.10;;;2.35;;
13079;SDS011;6606;49.154;9.280;2022-08-03T01:03:25;2.42;;;2.22;;
13079;SDS011;6606;49.154;9.280;2022-08-03T01:05:54;3.45;;;2.33;;
13079;SDS011;6606;49.154;9.280;2022-08-03T01:08:27;2.55;;;2.30;;
13079;SDS011;6606;49.154;9.280;2022-08-03T01:11:05;2.47;;;2.20;;
13079;SDS011;6606;49.154;9.280;2022-08-03T01:13:40;2.65;;;2.35;;
13079;SDS011;6606;49.154;9.280;2022-08-03T01:16:14;2.53;;;2.33;;
13079;SDS011;6606;49.154;9.280;2022-08-03T01:18:48;2.60;;;2.40;;
13079;SDS011;6606;49.154;9.280;2022-08-03T01:21:23;2.70;;;2.47;;
13079;SDS011;6606;49.154;9.280;2022-08-03T01:23:55;2.78;;;2.45;;
13079;SDS011;6606;49.154;9.280;2022-08-03T01:26:46;4.00;;;2.80;;
13079;SDS011;6606;49.154;9.280;2022-08-03T01:29:36;4.05;;;2.63;;
13079;SDS011;6606;49.154;9.280;2022-08-03T01:32:14;3.10;;;2.58;;
13079;SDS011;6606;49.154;9.280;2022-08-03T01:34:46;3.53;;;2.47;;
13079;SDS011;6606;49.154;9.280;2022-08-03T01:37:19;3.85;;;2.67;;
13079;SDS011;6606;49.154;9.280;2022-08-03T01:39:50;4.57;;;2.78;;
13079;SDS011;6606;49.154;9.280;2022-08-03T01:42:20;2.65;;;2.45;;
13079;SDS011;6606;49.154;9.280;2022-08-03T01:44:49;3.85;;;2.40;;
13079;SDS011;6606;49.154;9.280;2022-08-03T01:47:18;3.85;;;2.60;;
13079;SDS011;6606;49.154;9.280;2022-08-03T01:49:46;4.45;;;2.60;;
13079;SDS011;6606;49.154;9.280;2022-08-03T01:52:16;2.88;;;2.58;;
13079;SDS011;6606;49.154;9.280;2022-08-03T01:54:45;2.60;;;2.40;;
13079;SDS011;6606;49.154;9.280;2022-08-03T01:57:16;4.32;;;2.28;;
13079;SDS011;6606;49.154;9.280;2022-08-03T01:59:44;2.50;;;2.30;;
13079;SDS011;6606;49.154;9.280;2022-08-03T02:02:14;4.53;;;2.38;;
13079;SDS011;6606;49.154;9.280;2022-08-03T02:04:42;2.63;;;2.20;;
13079;SDS011;6606;49.154;9.280;2022-08-03T02:07:10;3.45;;;2.45;;
13079;SDS011;6606;49.154;9.280;2022-08-03T02:09:39;2.58;;;2.38;;
13079;SDS011;6606;49.154;9.280;2022-08-03T02:12:09;3.03;;;2.42;;
13079;SDS011;6606;49.154;9.280;2022-08-03T02:14:38;2.90;;;2.47;;
13079;SDS011;6606;49.154;9.280;2022-08-03T02:17:07;2.70;;;2.30;;
13079;SDS011;6606;49.154;9.280;2022-08-03T02:19:37;2.50;;;2.30;;
13079;SDS011;6606;49.154;9.280;2022-08-03T02:22:06;3.75;;;2.60;;
13079;SDS011;6606;49.154;9.280;2022-08-03T02:24:35;2.63;;;2.43;;
13079;SDS011;6606;49.154;9.280;2022-08-03T02:27:02;2.80;;;2.30;;
13079;SDS011;6606;49.154;9.280;2022-08-03T02:29:33;2.73;;;2.50;;
13079;SDS011;6606;49.154;9.280;2022-08-03T02:32:02;2.53;;;2.33;;
13079;SDS011;6606;49.154;9.280;2022-08-03T02:34:30;2.40;;;2.20;;
13079;SDS011;6606;49.154;9.280;2022-08-03T02:37:01;2.80;;;2.40;;
13079;SDS011;6606;49.154;9.280;2022-08-03T02:39:30;3.37;;;2.50;;
13079;SDS011;6606;49.154;9.280;2022-08-03T02:42:00;2.70;;;2.50;;
13079;SDS011;6606;49.154;9.280;2022-08-03T02:44:28;4.33;;;2.53;;
13079;SDS011;6606;49.154;9.280;2022-08-03T02:46:57;2.90;;;2.60;;
13079;SDS011;6606;49.154;9.280;2022-08-03T02:49:27;2.53;;;2.33;;
13079;SDS011;6606;49.154;9.280;2022-08-03T02:51:55;4.57;;;2.80;;
13079;SDS011;6606;49.154;9.280;2022-08-03T02:54:25;3.15;;;2.40;;
13079;SDS011;6606;49.154;9.280;2022-08-03T02:56:54;2.37;;;2.17;;
13079;SDS011;6606;49.154;9.280;2022-08-03T02:59:23;3.90;;;2.45;;
13079;SDS011;6606;49.154;9.280;2022-08-03T03:01:51;5.23;;;2.47;;
13079;SDS011;6606;49.154;9.280;2022-08-03T03:04:20;2.63;;;2.40;;
13079;SDS011;6606;49.154;9.280;2022-08-03T03:06:47;4.65;;;2.17;;
13079;SDS011;6606;49.154;9.280;2022-08-03T03:09:15;3.20;;;2.90;;
13079;SDS011;6606;49.154;9.280;2022-08-03T03:11:45;3.23;;;2.87;;
13079;SDS011;6606;49.154;9.280;2022-08-03T03:14:14;3.37;;;2.70;;
13079;SDS011;6606;49.154;9.280;2022-08-03T03:16:41;4.03;;;2.60;;
13079;SDS011;6606;49.154;9.280;2022-08-03T03:19:10;3.67;;;2.90;;
13079;SDS011;6606;49.154;9.280;2022-08-03T03:21:40;3.53;;;2.70;;
13079;SDS011;6606;49.154;9.280;2022-08-03T03:24:09;2.60;;;2.40;;
13079;SDS011;6606;49.154;9.280;2022-08-03T03:26:36;2.70;;;2.50;;
13079;SDS011;6606;49.154;9.280;2022-08-03T03:29:05;4.20;;;3.07;;
13079;SDS011;6606;49.154;9.280;2022-08-03T03:31:32;3.23;;;2.93;;
13079;SDS011;6606;49.154;9.280;2022-08-03T03:34:00;3.30;;;3.00;;
13079;SDS011;6606;49.154;9.280;2022-08-03T03:36:28;3.93;;;3.03;;
13079;SDS011;6606;49.154;9.280;2022-08-03T03:38:55;3.30;;;3.00;;
13079;SDS011;6606;49.154;9.280;2022-08-03T03:41:22;5.63;;;3.27;;
13079;SDS011;6606;49.154;9.280;2022-08-03T03:43:49;3.97;;;2.93;;
13079;SDS011;6606;49.154;9.280;2022-08-03T03:46:17;5.50;;;3.00;;
13079;SDS011;6606;49.154;9.280;2022-08-03T03:48:44;4.60;;;2.90;;
13079;SDS011;6606;49.154;9.280;2022-08-03T03:51:11;5.00;;;3.03;;
13079;SDS011;6606;49.154;9.280;2022-08-03T03:53:38;3.70;;;2.87;;
13079;SDS011;6606;49.154;9.280;2022-08-03T03:56:05;3.47;;;3.17;;
13079;SDS011;6606;49.154;9.280;2022-08-03T03:58:31;3.87;;;2.70;;
13079;SDS011;6606;49.154;9.280;2022-08-03T04:00:58;3.90;;;3.00;;
13079;SDS011;6606;49.154;9.280;2022-08-03T04:03:27;3.27;;;2.93;;
13079;SDS011;6606;49.154;9.280;2022-08-03T04:05:53;5.30;;;3.00;;
13079;SDS011;6606;49.154;9.280;2022-08-03T04:08:37;3.20;;;2.87;;
13079;SDS011;6606;49.154;9.280;2022-08-03T04:11:23;3.57;;;3.27;;
13079;SDS011;6606;49.154;9.280;2022-08-03T04:13:54;5.63;;;3.03;;
13079;SDS011;6606;49.154;9.280;2022-08-03T04:16:24;4.27;;;2.80;;
13079;SDS011;6606;49.154;9.280;2022-08-03T04:18:56;3.83;;;3.00;;
13079;SDS011;6606;49.154;9.280;2022-08-03T04:21:26;4.17;;;2.83;;
13079;SDS011;6606;49.154;9.280;2022-08-03T04:23:55;3.70;;;2.80;;
13079;SDS011;6606;49.154;9.280;2022-08-03T04:26:26;3.57;;;2.90;;
13079;SDS011;6606;49.154;9.280;2022-08-03T04:28:56;3.53;;;3.03;;
13079;SDS011;6606;49.154;9.280;2022-08-03T04:31:24;5.07;;;2.80;;
13079;SDS011;6606;49.154;9.280;2022-08-03T04:33:52;2.93;;;2.63;;
13079;SDS011;6606;49.154;9.280;2022-08-03T04:36:22;2.97;;;2.70;;
13079;SDS011;6606;49.154;9.280;2022-08-03T04:38:53;5.10;;;2.67;;
13079;SDS011;6606;49.154;9.280;2022-08-03T04:41:23;3.70;;;2.60;;
13079;SDS011;6606;49.154;9.280;2022-08-03T04:43:53;4.83;;;2.80;;
13079;SDS011;6606;49.154;9.280;2022-08-03T04:46:21;3.73;;;2.77;;
13079;SDS011;6606;49.154;9.280;2022-08-03T04:48:51;3.27;;;2.87;;
13079;SDS011;6606;49.154;9.280;2022-08-03T04:51:18;3.87;;;2.50;;
13079;SDS011;6606;49.154;9.280;2022-08-03T04:53:46;4.80;;;3.00;;
13079;SDS011;6606;49.154;9.280;2022-08-03T04:56:13;4.13;;;2.80;;
13079;SDS011;6606;49.154;9.280;2022-08-03T04:58:40;3.97;;;2.80;;
13079;SDS011;6606;49.154;9.280;2022-08-03T05:01:06;4.57;;;3.00;;
13079;SDS011;6606;49.154;9.280;2022-08-03T05:03:33;3.60;;;3.00;;
13079;SDS011;6606;49.154;9.280;2022-08-03T05:05:59;3.83;;;2.83;;
13079;SDS011;6606;49.154;9.280;2022-08-03T05:08:26;4.43;;;2.75;;
13079;SDS011;6606;49.154;9.280;2022-08-03T05:10:54;4.15;;;2.85;;
13079;SDS011;6606;49.154;9.280;2022-08-03T05:13:21;3.58;;;2.88;;
13079;SDS011;6606;49.154;9.280;2022-08-03T05:15:48;6.13;;;2.90;;
13079;SDS011;6606;49.154;9.280;2022-08-03T05:18:14;7.80;;;3.10;;
13079;SDS011;6606;49.154;9.280;2022-08-03T05:20:41;3.92;;;2.88;;
13079;SDS011;6606;49.154;9.280;2022-08-03T05:23:08;2.95;;;2.67;;
13079;SDS011;6606;49.154;9.280;2022-08-03T05:25:34;4.43;;;3.00;;
13079;SDS011;6606;49.154;9.280;2022-08-03T05:28:03;5.18;;;2.33;;
13079;SDS011;6606;49.154;9.280;2022-08-03T05:30:30;3.60;;;2.80;;
13079;SDS011;6606;49.154;9.280;2022-08-03T05:32:56;3.97;;;2.70;;
13079;SDS011;6606;49.154;9.280;2022-08-03T05:35:24;3.70;;;2.90;;
13079;SDS011;6606;49.154;9.280;2022-08-03T05:37:53;4.53;;;2.78;;
13079;SDS011;6606;49.154;9.280;2022-08-03T05:40:19;2.95;;;2.60;;
13079;SDS011;6606;49.154;9.280;2022-08-03T05:42:46;3.05;;;2.58;;
13079;SDS011;6606;49.154;9.280;2022-08-03T05:45:15;4.07;;;2.65;;
13079;SDS011;6606;49.154;9.280;2022-08-03T05:47:42;2.88;;;2.58;;
13079;SDS011;6606;49.154;9.280;2022-08-03T05:50:09;4.93;;;2.58;;
13079;SDS011;6606;49.154;9.280;2022-08-03T05:52:37;2.95;;;2.63;;
13079;SDS011;6606;49.154;9.280;2022-08-03T05:55:04;4.72;;;2.80;;
13079;SDS011;6606;49.154;9.280;2022-08-03T05:57:31;3.00;;;2.40;;
13079;SDS011;6606;49.154;9.280;2022-08-03T05:59:58;3.00;;;2.70;;
13079;SDS011;6606;49.154;9.280;2022-08-03T06:02:26;3.05;;;2.55;;
13079;SDS011;6606;49.154;9.280;2022-08-03T06:04:53;2.13;;;1.92;;
13079;SDS011;6606;49.154;9.280;2022-08-03T06:07:20;2.65;;;2.45;;
13079;SDS011;6606;49.154;9.280;2022-08-03T06:09:46;3.90;;;2.20;;
13079;SDS011;6606;49.154;9.280;2022-08-03T06:12:13;3.03;;;2.40;;
13079;SDS011;6606;49.154;9.280;2022-08-03T06:14:40;2.22;;;1.77;;
13079;SDS011;6606;49.154;9.280;2022-08-03T06:17:06;2.55;;;2.25;;
13079;SDS011;6606;49.154;9.280;2022-08-03T06:19:34;2.63;;;2.00;;
13079;SDS011;6606;49.154;9.280;2022-08-03T06:22:01;2.55;;;2.13;;
13079;SDS011;6606;49.154;9.280;2022-08-03T06:24:28;2.47;;;2.28;;
13079;SDS011;6606;49.154;9.280;2022-08-03T06:26:55;2.60;;;2.30;;
13079;SDS011;6606;49.154;9.280;2022-08-03T06:29:22;2.47;;;2.20;;
13079;SDS011;6606;49.154;9.280;2022-08-03T06:31:49;2.65;;;2.17;;
13079;SDS011;6606;49.154;9.280;2022-08-03T06:34:15;3.08;;;2.40;;
13079;SDS011;6606;49.154;9.280;2022-08-03T06:36:43;5.40;;;2.55;;
13079;SDS011;6606;49.154;9.280;2022-08-03T06:39:12;2.75;;;2.00;;
13079;SDS011;6606;49.154;9.280;2022-08-03T06:41:39;3.65;;;2.00;;
13079;SDS011;6606;49.154;9.280;2022-08-03T06:44:07;3.17;;;2.17;;
13079;SDS011;6606;49.154;9.280;2022-08-03T06:46:33;3.40;;;1.98;;
13079;SDS011;6606;49.154;9.280;2022-08-03T06:49:00;2.58;;;2.28;;
13079;SDS011;6606;49.154;9.280;2022-08-03T06:51:27;3.10;;;2.10;;
13079;SDS011;6606;49.154;9.280;2022-08-03T06:53:55;2.72;;;2.20;;
13079;SDS011;6606;49.154;9.280;2022-08-03T06:56:22;2.60;;;1.98;;
13079;SDS011;6606;49.154;9.280;2022-08-03T06:58:48;2.13;;;1.90;;
13079;SDS011;6606;49.154;9.280;2022-08-03T07:01:15;3.50;;;2.00;;
13079;SDS011;6606;49.154;9.280;2022-08-03T07:03:42;6.13;;;2.33;;
13079;SDS011;6606;49.154;9.280;2022-08-03T07:06:09;5.32;;;2.80;;
13079;SDS011;6606;49.154;9.280;2022-08-03T07:08:36;4.95;;;2.30;;
13079;SDS011;6606;49.154;9.280;2022-08-03T07:11:04;3.42;;;2.28;;
13079;SDS011;6606;49.154;9.280;2022-08-03T07:13:32;3.40;;;2.40;;
13079;SDS011;6606;49.154;9.280;2022-08-03T07:15:58;2.40;;;2.20;;
13079;SDS011;6606;49.154;9.280;2022-08-03T07:18:25;3.53;;;2.10;;
13079;SDS011;6606;49.154;9.280;2022-08-03T07:20:52;7.53;;;2.53;;
13079;SDS011;6606;49.154;9.280;2022-08-03T07:23:19;7.10;;;2.30;;
13079;SDS011;6606;49.154;9.280;2022-08-03T07:25:45;5.80;;;2.30;;
13079;SDS011;6606;49.154;9.280;2022-08-03T07:28:13;6.18;;;2.38;;
13079;SDS011;6606;49.154;9.280;2022-08-03T07:30:40;4.00;;;1.90;;
13079;SDS011;6606;49.154;9.280;2022-08-03T07:33:07;6.28;;;2.15;;
13079;SDS011;6606;49.154;9.280;2022-08-03T07:35:33;5.78;;;2.28;;
13079;SDS011;6606;49.154;9.280;2022-08-03T07:38:00;5.43;;;1.90;;
13079;SDS011;6606;49.154;9.280;2022-08-03T07:40:27;2.13;;;1.70;;
13079;SDS011;6606;49.154;9.280;2022-08-03T07:42:53;6.50;;;1.90;;
13079;SDS011;6606;49.154;9.280;2022-08-03T07:45:21;4.38;;;2.00;;
13079;SDS011;6606;49.154;9.280;2022-08-03T07:47:48;5.32;;;2.08;;
13079;SDS011;6606;49.154;9.280;2022-08-03T07:50:15;6.47;;;2.30;;
13079;SDS011;6606;49.154;9.280;2022-08-03T07:52:41;10.32;;;2.28;;
13079;SDS011;6606;49.154;9.280;2022-08-03T07:55:15;8.10;;;2.17;;
13079;SDS011;6606;49.154;9.280;2022-08-03T07:57:42;3.50;;;1.90;;
13079;SDS011;6606;49.154;9.280;2022-08-03T08:00:12;3.05;;;1.80;;
13079;SDS011;6606;49.154;9.280;2022-08-03T08:02:42;7.95;;;2.00;;
13079;SDS011;6606;49.154;9.280;2022-08-03T08:05:10;2.22;;;1.83;;
13079;SDS011;6606;49.154;9.280;2022-08-03T08:07:38;5.60;;;1.85;;
13079;SDS011;6606;49.154;9.280;2022-08-03T08:10:05;3.03;;;2.00;;
13079;SDS011;6606;49.154;9.280;2022-08-03T08:12:34;3.72;;;1.73;;
13079;SDS011;6606;49.154;9.280;2022-08-03T08:15:00;4.57;;;1.80;;
13079;SDS011;6606;49.154;9.280;2022-08-03T08:17:27;4.90;;;1.85;;
13079;SDS011;6606;49.154;9.280;2022-08-03T08:19:55;6.22;;;2.15;;
13079;SDS011;6606;49.154;9.280;2022-08-03T08:22:22;3.72;;;1.83;;
13079;SDS011;6606;49.154;9.280;2022-08-03T08:24:49;2.53;;;1.95;;
13079;SDS011;6606;49.154;9.280;2022-08-03T08:27:15;7.70;;;2.05;;
13079;SDS011;6606;49.154;9.280;2022-08-03T08:29:42;3.33;;;1.77;;
13079;SDS011;6606;49.154;9.280;2022-08-03T08:32:08;8.55;;;2.20;;
13079;SDS011;6606;49.154;9.280;2022-08-03T08:34:37;9.85;;;2.25;;
13079;SDS011;6606;49.154;9.280;2022-08-03T08:37:05;5.05;;;1.85;;
13079;SDS011;6606;49.154;9.280;2022-08-03T08:39:32;7.13;;;2.10;;
13079;SDS011;6606;49.154;9.280;2022-08-03T08:41:58;4.57;;;1.75;;
13079;SDS011;6606;49.154;9.280;2022-08-03T08:44:25;3.53;;;1.70;;
13079;SDS011;6606;49.154;9.280;2022-08-03T08:46:52;4.50;;;1.92;;
13079;SDS011;6606;49.154;9.280;2022-08-03T08:49:20;9.50;;;2.10;;
13079;SDS011;6606;49.154;9.280;2022-08-03T08:51:52;4.97;;;2.17;;
13079;SDS011;6606;49.154;9.280;2022-08-03T08:54:23;2.92;;;1.83;;
13079;SDS011;6606;49.154;9.280;2022-08-03T08:56:51;3.47;;;1.75;;
13079;SDS011;6606;49.154;9.280;2022-08-03T08:59:21;5.03;;;2.05;;
13079;SDS011;6606;49.154;9.280;2022-08-03T09:01:48;1.70;;;1.60;;
13079;SDS011;6606;49.154;9.280;2022-08-03T09:04:14;7.07;;;2.28;;
13079;SDS011;6606;49.154;9.280;2022-08-03T09:06:41;2.22;;;1.70;;
13079;SDS011;6606;49.154;9.280;2022-08-03T09:09:08;3.25;;;2.00;;
13079;SDS011;6606;49.154;9.280;2022-08-03T09:11:36;4.90;;;1.90;;
13079;SDS011;6606;49.154;9.280;2022-08-03T09:14:07;5.18;;;2.00;;
13079;SDS011;6606;49.154;9.280;2022-08-03T09:16:34;4.20;;;2.38;;
13079;SDS011;6606;49.154;9.280;2022-08-03T09:19:10;6.63;;;2.03;;
13079;SDS011;6606;49.154;9.280;2022-08-03T09:21:38;5.07;;;2.13;;
13079;SDS011;6606;49.154;9.280;2022-08-03T09:24:05;7.40;;;1.73;;
13079;SDS011;6606;49.154;9.280;2022-08-03T09:26:32;4.15;;;1.77;;
13079;SDS011;6606;49.154;9.280;2022-08-03T09:29:03;4.15;;;1.77;;
13079;SDS011;6606;49.154;9.280;2022-08-03T09:31:32;3.38;;;1.77;;
13079;SDS011;6606;49.154;9.280;2022-08-03T09:34:00;6.15;;;1.92;;
13079;SDS011;6606;49.154;9.280;2022-08-03T09:36:39;2.75;;;1.63;;
13079;SDS011;6606;49.154;9.280;2022-08-03T09:39:08;4.05;;;1.60;;
13079;SDS011;6606;49.154;9.280;2022-08-03T09:41:37;7.30;;;1.35;;
13079;SDS011;6606;49.154;9.280;2022-08-03T09:44:06;4.05;;;1.83;;
13079;SDS011;6606;49.154;9.280;2022-08-03T09:46:46;2.78;;;1.60;;
13079;SDS011;6606;49.154;9.280;2022-08-03T09:49:13;3.85;;;1.65;;
13079;SDS011;6606;49.154;9.280;2022-08-03T09:51:39;4.72;;;2.05;;
13079;SDS011;6606;49.154;9.280;2022-08-03T09:54:07;6.45;;;1.75;;
13079;SDS011;6606;49.154;9.280;2022-08-03T09:56:38;3.58;;;1.73;;
13079;SDS011;6606;49.154;9.280;2022-08-03T09:59:08;3.25;;;1.80;;
13079;SDS011;6606;49.154;9.280;2022-08-03T10:01:36;3.00;;;1.70;;
13079;SDS011;6606;49.154;9.280;2022-08-03T10:04:07;1.85;;;1.45;;
13079;SDS011;6606;49.154;9.280;2022-08-03T10:06:37;4.57;;;1.50;;
13079;SDS011;6606;49.154;9.280;2022-08-03T10:09:04;2.53;;;1.60;;
13079;SDS011;6606;49.154;9.280;2022-08-03T10:11:32;4.70;;;1.50;;
13079;SDS011;6606;49.154;9.280;2022-08-03T10:14:00;3.38;;;1.67;;
13079;SDS011;6606;49.154;9.280;2022-08-03T10:16:31;4.82;;;1.70;;
13079;SDS011;6606;49.154;9.280;2022-08-03T10:19:00;3.40;;;1.73;;
13079;SDS011;6606;49.154;9.280;2022-08-03T10:21:29;2.28;;;1.55;;
13079;SDS011;6606;49.154;9.280;2022-08-03T10:24:01;2.70;;;1.50;;
13079;SDS011;6606;49.154;9.280;2022-08-03T10:26:30;3.78;;;1.40;;
13079;SDS011;6606;49.154;9.280;2022-08-03T10:28:58;3.20;;;1.27;;
13079;SDS011;6606;49.154;9.280;2022-08-03T10:31:30;2.50;;;1.40;;
13079;SDS011;6606;49.154;9.280;2022-08-03T10:34:05;9.70;;;1.98;;
13079;SDS011;6606;49.154;9.280;2022-08-03T10:36:37;4.25;;;1.77;;
13079;SDS011;6606;49.154;9.280;2022-08-03T10:39:06;2.95;;;1.50;;
13079;SDS011;6606;49.154;9.280;2022-08-03T10:41:34;4.18;;;1.80;;
13079;SDS011;6606;49.154;9.280;2022-08-03T10:44:05;4.93;;;1.55;;
13079;SDS011;6606;49.154;9.280;2022-08-03T10:46:37;3.53;;;1.70;;
13079;SDS011;6606;49.154;9.280;2022-08-03T10:49:04;2.13;;;1.40;;
13079;SDS011;6606;49.154;9.280;2022-08-03T10:51:32;1.65;;;1.42;;
13079;SDS011;6606;49.154;9.280;2022-08-03T10:54:00;4.85;;;1.60;;
13079;SDS011;6606;49.154;9.280;2022-08-03T10:56:39;2.58;;;1.50;;
13079;SDS011;6606;49.154;9.280;2022-08-03T11:02:25;2.85;;;1.50;;
13079;SDS011;6606;49.154;9.280;2022-08-03T11:05:26;2.13;;;1.30;;
13079;SDS011;6606;49.154;9.280;2022-08-03T11:10:52;1.98;;;1.48;;
13079;SDS011;6606;49.154;9.280;2022-08-03T11:13:22;1.65;;;1.30;;
13079;SDS011;6606;49.154;9.280;2022-08-03T11:15:51;2.17;;;1.42;;
13079;SDS011;6606;49.154;9.280;2022-08-03T11:18:20;2.03;;;1.50;;
13079;SDS011;6606;49.154;9.280;2022-08-03T11:20:49;4.00;;;1.50;;
13079;SDS011;6606;49.154;9.280;2022-08-03T11:23:17;2.63;;;1.50;;
13079;SDS011;6606;49.154;9.280;2022-08-03T11:28:40;1.35;;;1.23;;
13079;SDS011;6606;49.154;9.280;2022-08-03T11:34:16;1.60;;;1.40;;
13079;SDS011;6606;49.154;9.280;2022-08-03T11:39:49;1.98;;;1.38;;
13079;SDS011;6606;49.154;9.280;2022-08-03T11:45:08;1.52;;;1.20;;
13079;SDS011;6606;49.154;9.280;2022-08-03T11:47:38;2.42;;;1.33;;
13079;SDS011;6606;49.154;9.280;2022-08-03T11:50:07;2.65;;;1.40;;
13079;SDS011;6606;49.154;9.280;2022-08-03T11:52:35;4.20;;;1.23;;
13079;SDS011;6606;49.154;9.280;2022-08-03T11:55:07;3.25;;;1.38;;
13079;SDS011;6606;49.154;9.280;2022-08-03T11:57:35;1.95;;;1.30;;
13079;SDS011;6606;49.154;9.280;2022-08-03T12:00:02;2.85;;;1.30;;
13079;SDS011;6606;49.154;9.280;2022-08-03T12:02:52;3.83;;;1.40;;
13079;SDS011;6606;49.154;9.280;2022-08-03T12:05:33;2.40;;;1.20;;
13079;SDS011;6606;49.154;9.280;2022-08-03T12:08:00;2.22;;;1.27;;
13079;SDS011;6606;49.154;9.280;2022-08-03T12:10:27;2.83;;;1.20;;
13079;SDS011;6606;49.154;9.280;2022-08-03T12:12:54;2.58;;;1.20;;
13079;SDS011;6606;49.154;9.280;2022-08-03T12:15:25;1.83;;;1.27;;
13079;SDS011;6606;49.154;9.280;2022-08-03T12:17:53;4.13;;;1.45;;
13079;SDS011;6606;49.154;9.280;2022-08-03T12:20:22;4.60;;;1.38;;
13079;SDS011;6606;49.154;9.280;2022-08-03T12:22:51;3.15;;;1.30;;
13079;SDS011;6606;49.154;9.280;2022-08-03T12:25:21;3.30;;;1.65;;
13079;SDS011;6606;49.154;9.280;2022-08-03T12:27:49;1.30;;;1.20;;
13079;SDS011;6606;49.154;9.280;2022-08-03T12:30:15;1.33;;;1.23;;
13079;SDS011;6606;49.154;9.280;2022-08-03T12:32:42;2.22;;;1.20;;
13079;SDS011;6606;49.154;9.280;2022-08-03T12:35:09;2.72;;;1.30;;
13079;SDS011;6606;49.154;9.280;2022-08-03T12:37:47;4.80;;;1.50;;
13079;SDS011;6606;49.154;9.280;2022-08-03T12:40:15;2.08;;;1.33;;
13079;SDS011;6606;49.154;9.280;2022-08-03T12:42:50;2.28;;;1.20;;
13079;SDS011;6606;49.154;9.280;2022-08-03T12:45:18;1.88;;;1.23;;
13079;SDS011;6606;49.154;9.280;2022-08-03T12:47:49;2.17;;;1.38;;
13079;SDS011;6606;49.154;9.280;2022-08-03T12:50:24;1.40;;;1.20;;
13079;SDS011;6606;49.154;9.280;2022-08-03T12:52:52;1.55;;;1.00;;
13079;SDS011;6606;49.154;9.280;2022-08-03T12:55:21;2.85;;;1.10;;
13079;SDS011;6606;49.154;9.280;2022-08-03T12:57:48;1.90;;;1.10;;
13079;SDS011;6606;49.154;9.280;2022-08-03T13:00:16;2.28;;;1.20;;
13079;SDS011;6606;49.154;9.280;2022-08-03T13:02:44;2.20;;;1.30;;
13079;SDS011;6606;49.154;9.280;2022-08-03T13:05:11;2.90;;;1.25;;
13079;SDS011;6606;49.154;9.280;2022-08-03T13:07:39;1.40;;;1.20;;
13079;SDS011;6606;49.154;9.280;2022-08-03T13:10:07;2.08;;;1.20;;
13079;SDS011;6606;49.154;9.280;2022-08-03T13:12:45;1.27;;;1.17;;
13079;SDS011;6606;49.154;9.280;2022-08-03T13:15:13;1.50;;;1.20;;
13079;SDS011;6606;49.154;9.280;2022-08-03T13:17:40;1.65;;;1.20;;
13079;SDS011;6606;49.154;9.280;2022-08-03T13:20:07;1.33;;;1.10;;
13079;SDS011;6606;49.154;9.280;2022-08-03T13:22:34;2.00;;;1.40;;
13079;SDS011;6606;49.154;9.280;2022-08-03T13:25:01;1.65;;;1.25;;
13079;SDS011;6606;49.154;9.280;2022-08-03T13:27:28;1.33;;;1.15;;
13079;SDS011;6606;49.154;9.280;2022-08-03T13:29:57;1.50;;;1.20;;
13079;SDS011;6606;49.154;9.280;2022-08-03T13:32:23;1.52;;;1.20;;
13079;SDS011;6606;49.154;9.280;2022-08-03T13:34:50;1.23;;;1.10;;
13079;SDS011;6606;49.154;9.280;2022-08-03T13:37:17;1.45;;;1.00;;
13079;SDS011;6606;49.154;9.280;2022-08-03T13:39:43;3.00;;;1.33;;
13079;SDS011;6606;49.154;9.280;2022-08-03T13:42:10;1.88;;;1.30;;
13079;SDS011;6606;49.154;9.280;2022-08-03T13:44:36;2.00;;;1.30;;
13079;SDS011;6606;49.154;9.280;2022-08-03T13:47:05;1.80;;;1.20;;
13079;SDS011;6606;49.154;9.280;2022-08-03T13:49:31;2.90;;;1.20;;
13079;SDS011;6606;49.154;9.280;2022-08-03T13:51:58;1.90;;;1.40;;
13079;SDS011;6606;49.154;9.280;2022-08-03T13:54:25;1.40;;;1.30;;
13079;SDS011;6606;49.154;9.280;2022-08-03T13:56:52;2.45;;;1.20;;
13079;SDS011;6606;49.154;9.280;2022-08-03T13:59:18;1.70;;;1.30;;
13079;SDS011;6606;49.154;9.280;2022-08-03T14:01:45;1.98;;;1.30;;
13079;SDS011;6606;49.154;9.280;2022-08-03T14:04:16;2.30;;;1.20;;
13079;SDS011;6606;49.154;9.280;2022-08-03T14:06:44;1.33;;;1.23;;
13079;SDS011;6606;49.154;9.280;2022-08-03T14:09:10;1.30;;;1.20;;
13079;SDS011;6606;49.154;9.280;2022-08-03T14:11:37;1.75;;;1.40;;
13079;SDS011;6606;49.154;9.280;2022-08-03T14:14:04;1.75;;;1.20;;
13079;SDS011;6606;49.154;9.280;2022-08-03T14:16:31;2.03;;;1.10;;
13079;SDS011;6606;49.154;9.280;2022-08-03T14:18:57;1.90;;;1.20;;
13079;SDS011;6606;49.154;9.280;2022-08-03T14:21:25;1.55;;;1.10;;
13079;SDS011;6606;49.154;9.280;2022-08-03T14:23:52;1.50;;;1.27;;
13079;SDS011;6606;49.154;9.280;2022-08-03T14:26:19;1.65;;;1.30;;
13079;SDS011;6606;49.154;9.280;2022-08-03T14:28:45;2.55;;;1.42;;
13079;SDS011;6606;49.154;9.280;2022-08-03T14:31:12;1.35;;;1.13;;
13079;SDS011;6606;49.154;9.280;2022-08-03T14:33:39;2.75;;;1.20;;
13079;SDS011;6606;49.154;9.280;2022-08-03T14:36:05;1.25;;;1.15;;
13079;SDS011;6606;49.154;9.280;2022-08-03T14:38:33;2.30;;;1.17;;
13079;SDS011;6606;49.154;9.280;2022-08-03T14:41:00;3.70;;;1.30;;
13079;SDS011;6606;49.154;9.280;2022-08-03T14:43:27;1.40;;;1.10;;
13079;SDS011;6606;49.154;9.280;2022-08-03T14:45:53;10.63;;;1.50;;
13079;SDS011;6606;49.154;9.280;2022-08-03T14:48:21;2.00;;;1.10;;
13079;SDS011;6606;49.154;9.280;2022-08-03T14:50:49;2.28;;;1.27;;
13079;SDS011;6606;49.154;9.280;2022-08-03T14:53:16;1.25;;;1.15;;
13079;SDS011;6606;49.154;9.280;2022-08-03T14:55:45;1.70;;;1.40;;
13079;SDS011;6606;49.154;9.280;2022-08-03T14:58:13;1.48;;;1.20;;
13079;SDS011;6606;49.154;9.280;2022-08-03T15:00:40;1.35;;;1.20;;
13079;SDS011;6606;49.154;9.280;2022-08-03T15:03:06;1.45;;;1.33;;
13079;SDS011;6606;49.154;9.280;2022-08-03T15:05:33;1.55;;;1.10;;
13079;SDS011;6606;49.154;9.280;2022-08-03T15:07:59;3.53;;;1.17;;
13079;SDS011;6606;49.154;9.280;2022-08-03T15:10:26;1.50;;;1.27;;
13079;SDS011;6606;49.154;9.280;2022-08-03T15:12:54;1.55;;;1.38;;
13079;SDS011;6606;49.154;9.280;2022-08-03T15:15:21;1.63;;;1.20;;
13079;SDS011;6606;49.154;9.280;2022-08-03T15:17:48;1.95;;;1.10;;
13079;SDS011;6606;49.154;9.280;2022-08-03T15:20:14;2.78;;;1.30;;
13079;SDS011;6606;49.154;9.280;2022-08-03T15:22:41;2.40;;;1.30;;
13079;SDS011;6606;49.154;9.280;2022-08-03T15:25:08;1.90;;;1.30;;
13079;SDS011;6606;49.154;9.280;2022-08-03T15:27:35;1.65;;;1.10;;